Wales, AK

8:32 PM AKDT on July 31, 2015 (GMT -0800)
Tin City LRRS | | Change Station
CLOSE
Current Station
Airport
Location: Tin City,
Elevation: 272 ft
Nearby Weather Stations

Elev 272 ft 65.56 °N, 167.92 °W | Updated 5 minutes ago

Light Rain Showers
Light Showers Rain Mist
48 °F
Feels Like 48 °F
N
30
Wind Variable Wind from WSW

Today
High -- | Low -- °F
--% Chance of Precip.
Yesterday
High -- | Low -- °F
Precip. -- in
5:59 AM 0:33 AM
Full, 99% visible
Pressure 29.99 in
Visibility 1.8 miles
Clouds
Dew Point 48 °F
Humidity 100%
Rainfall 0.00 in
Snow Depth Not available.
UV Not available.
Pollen Not available.
Air Quality Not available.
Flu Activity Not available.
SPECI PATC 010427Z AUTO 24026KT 1 3/4SM -SHRA BR VV002 09/09 A2999 RMK AO2 PK WND 23031/0411 SLP156

More Conditions Fewer Conditions

Pressure 29.99 in
Visibility 1.8 miles
Clouds
Dew Point 48 °F
Humidity 100%
Rainfall 0.00 in
Snow Depth Not available.
UV Not available.
Pollen Not available.
Air Quality Not available.
Flu Activity Not available.
SPECI PATC 010427Z AUTO 24026KT 1 3/4SM -SHRA BR VV002 09/09 A2999 RMK AO2 PK WND 23031/0411 SLP156

More Conditions Fewer Conditions

10-Day Weather Forecast

×

Almanac

Astronomy

Jul. 31, 2015 Rise Set
Actual Time
Civil Twilight
Nautical Twilight
Astronomical Twilight
Moon
Length of Visible Light
Length of Day
Tomorrow will be .
, % of the Moon is Illuminated

Today's Extremes

State Highs State Lows

Community

WunderPhotos

Upload Photos

1,842,882 photos uploaded!

WunderBlogs® & News

Nearby

Air Quality

  Air Quality AQ Index Pollutant
Not available.

Snow Depth

Station Depth Elevation

Earthquake Activity

City Distance Mag. Time & Date
Minimum magnitude displayed is 2.5.

Coastal Water Temperatures

Place Temperature

Stations

Nearby Weather Stations

Station Location Temp. Windchill Dew Point Humidity Wind Precip. Elev Updated Type